createdAt,value
2022-10-08T00:25:10.000Z,1.0
2022-10-08T00:55:20.000Z,0.0
2022-10-08T01:25:23.000Z,1.0
2022-10-08T01:55:26.000Z,0.0
2022-10-08T02:25:31.000Z,1.0
2022-10-08T02:55:36.000Z,0.0
2022-10-08T03:25:37.695Z,0
2022-10-08T03:55:40.000Z,0.0
2022-10-08T04:25:43.000Z,1.0
2022-10-08T04:55:49.000Z,1.0
2022-10-08T05:25:50.000Z,2.0
2022-10-08T05:55:51.000Z,14.0
2022-10-08T06:25:58.000Z,35.0
2022-10-08T06:56:03.000Z,63.0
2022-10-08T07:26:06.118Z,91
2022-10-08T07:56:12.000Z,148.0
2022-10-08T08:26:16.000Z,116.0
2022-10-08T08:56:18.000Z,177.0
2022-10-08T09:26:19.000Z,183.0
2022-10-08T09:56:22.000Z,331.0
2022-10-08T10:26:27.000Z,181.0
2022-10-08T10:56:34.000Z,166.0
2022-10-08T11:26:38.119Z,295
2022-10-08T11:56:42.120Z,232
2022-10-08T12:26:44.000Z,561.0
2022-10-08T12:56:54.000Z,141.0
2022-10-08T13:27:05.000Z,123.0
2022-10-08T13:57:08.000Z,106.0
2022-10-08T14:27:12.000Z,302.0
2022-10-08T14:57:17.000Z,248.0
2022-10-08T15:27:17.239Z,35
2022-10-08T15:57:18.281Z,23
2022-10-08T16:27:18.498Z,12
2022-10-08T16:57:25.400Z,2
2022-10-08T17:27:26.425Z,1
2022-10-08T17:57:31.476Z,1
2022-10-08T18:27:32.519Z,1
2022-10-08T18:57:33.460Z,2
2022-10-08T19:27:35.437Z,2
2022-10-08T19:57:40.426Z,1
2022-10-08T20:27:43.469Z,2
2022-10-08T20:57:53.459Z,3
2022-10-08T21:27:56.469Z,2
2022-10-08T21:58:00.483Z,1
2022-10-08T22:28:01.115Z,0
2022-10-08T22:58:03.966Z,1
2022-10-08T23:28:05.999Z,2
2022-10-08T23:58:11.992Z,1
